Time;durP1;ratioP1;P1;durP2;ratioP2;P2;SDS_P1;SDS_P2;PMS_P1;PMS_P2;Temp;Humidity;BMP_temperature;BMP_pressure;BME280_temperature;BME280_humidity;BME280_pressure;Samples;Min_cycle;Max_cycle;Signal;HPM_P1;HPM_P2
2021/08/05 00:00:53;;;;;;;8.93;4.40;;;;;;;15.80;94.81;99606.97;4701743;30;20526;-52
2021/08/05 00:03:18;;;;;;;10.98;5.95;;;;;;;15.75;95.44;99605.53;4698441;30;20132;-54
2021/08/05 00:05:44;;;;;;;14.85;6.78;;;;;;;15.71;95.43;99604.00;4713958;30;20530;-54
2021/08/05 00:08:10;;;;;;;11.88;5.75;;;;;;;15.73;95.56;99607.38;4706881;30;20594;-54
2021/08/05 00:10:36;;;;;;;16.98;7.30;;;;;;;15.70;95.78;99612.81;4703040;30;20045;-54
2021/08/05 00:13:02;;;;;;;14.57;8.02;;;;;;;15.60;95.98;99605.44;4696546;30;20053;-54
2021/08/05 00:15:28;;;;;;;17.92;9.48;;;;;;;15.60;96.44;99612.44;4697689;30;20050;-52
2021/08/05 00:17:54;;;;;;;14.77;9.25;;;;;;;15.50;96.36;99600.75;4697148;30;20057;-53
2021/08/05 00:20:20;;;;;;;11.80;8.38;;;;;;;15.61;96.66;99619.38;4693228;30;20087;-53
2021/08/05 00:22:46;;;;;;;16.88;9.02;;;;;;;15.59;96.63;99627.38;4686664;30;20049;-51
2021/08/05 00:25:12;;;;;;;17.08;8.95;;;;;;;15.58;96.69;99630.91;4697657;30;20096;-55
2021/08/05 00:27:37;;;;;;;16.08;10.23;;;;;;;15.56;96.68;99618.81;4700884;30;20514;-55
2021/08/05 00:30:09;;;;;;;19.20;9.93;;;;;;;15.56;96.86;99622.28;4704889;30;20663;-51
2021/08/05 00:32:35;;;;;;;17.05;10.05;;;;;;;15.56;97.10;99624.03;4716017;30;20545;-51
2021/08/05 00:35:01;;;;;;;17.25;8.88;;;;;;;15.54;97.16;99620.69;4699626;30;20037;-54
2021/08/05 00:37:28;;;;;;;17.27;9.70;;;;;;;15.57;97.27;99623.13;4701020;30;20486;-54
2021/08/05 00:39:53;;;;;;;12.25;7.65;;;;;;;15.57;97.39;99625.75;4713941;30;20052;-54
2021/08/05 00:42:19;;;;;;;16.55;8.57;;;;;;;15.57;97.14;99625.75;4708174;30;20188;-54
2021/08/05 00:44:45;;;;;;;11.90;8.40;;;;;;;15.57;96.53;99625.75;4715542;30;20104;-55
2021/08/05 00:47:11;;;;;;;20.20;10.70;;;;;;;15.59;96.63;99631.75;4712170;30;20135;-52
2021/08/05 00:49:37;;;;;;;19.70;10.25;;;;;;;15.57;97.10;99621.34;4702121;30;20515;-51
2021/08/05 00:52:03;;;;;;;18.67;10.05;;;;;;;15.57;97.43;99628.38;4695981;30;20696;-53
2021/08/05 00:54:29;;;;;;;17.65;9.10;;;;;;;15.45;97.91;99614.13;4715841;30;20045;-54
2021/08/05 00:56:55;;;;;;;14.68;8.65;;;;;;;15.49;98.11;99631.34;4701481;30;20081;-54
2021/08/05 00:59:21;;;;;;;20.27;8.95;;;;;;;15.46;98.70;99633.31;4687003;30;20049;-53
2021/08/05 01:02:02;;;;;;;12.63;7.90;;;;;;;15.44;99.10;99637.81;4710961;30;20049;-53
2021/08/05 01:04:32;;;;;;;15.68;8.00;;;;;;;15.41;99.01;99635.34;4693460;30;20053;-54
2021/08/05 01:06:59;;;;;;;12.80;7.35;;;;;;;15.41;98.90;99637.97;4701388;30;20446;-53
2021/08/05 01:10:02;;;;;;;14.75;8.38;;;;;;;15.40;99.73;99638.88;4711827;30;20076;-52
2021/08/05 01:12:49;;;;;;;17.65;8.65;;;;;;;15.40;99.97;99639.72;4710865;30;20136;-54
2021/08/05 01:15:26;;;;;;;11.05;6.90;;;;;;;15.39;99.93;99631.94;4700211;30;20055;-52
2021/08/05 01:18:09;;;;;;;10.57;6.55;;;;;;;15.39;100.00;99631.94;4698604;30;20482;-53
2021/08/05 01:20:35;;;;;;;11.55;6.63;;;;;;;15.35;100.00;99626.03;4711824;30;20136;-52
2021/08/05 01:23:33;;;;;;;14.95;7.72;;;;;;;15.34;100.00;99620.88;4683699;30;20053;-54
2021/08/05 01:26:23;;;;;;;15.13;6.53;;;;;;;15.31;100.00;99623.69;4681415;30;20053;-55
2021/08/05 01:28:51;;;;;;;14.93;6.28;;;;;;;15.28;100.00;99633.38;4685701;30;20052;-55
2021/08/05 01:31:17;;;;;;;11.05;6.43;;;;;;;15.25;100.00;99633.56;4689387;30;20060;-52
2021/08/05 01:33:46;;;;;;;14.30;6.32;;;;;;;15.23;100.00;99627.56;4683480;30;20056;-53
2021/08/05 01:36:12;;;;;;;12.52;6.05;;;;;;;15.22;100.00;99633.75;4698024;30;20052;-54
2021/08/05 01:38:39;;;;;;;14.13;5.90;;;;;;;15.21;100.00;99641.66;4702695;30;20049;-55
2021/08/05 01:41:06;;;;;;;10.52;5.63;;;;;;;15.19;100.00;99640.91;4703221;30;20045;-52
2021/08/05 01:43:32;;;;;;;17.73;6.40;;;;;;;15.18;100.00;99639.19;4699664;30;20140;-53
2021/08/05 01:45:59;;;;;;;12.68;6.95;;;;;;;15.19;100.00;99641.75;4683622;30;20054;-52
2021/08/05 01:48:25;;;;;;;15.77;7.05;;;;;;;15.18;100.00;99642.66;4692533;30;20060;-53
2021/08/05 01:50:52;;;;;;;13.82;7.93;;;;;;;15.18;100.00;99644.44;4672214;30;20064;-55
2021/08/05 01:53:18;;;;;;;16.70;7.40;;;;;;;15.19;100.00;99643.50;4685489;30;20782;-54
2021/08/05 01:55:46;;;;;;;19.23;8.30;;;;;;;15.20;100.00;99640.81;4711213;30;20541;-55
2021/08/05 01:58:13;;;;;;;17.38;8.07;;;;;;;15.22;100.00;99638.13;4700680;30;20239;-53
2021/08/05 02:00:39;;;;;;;15.88;8.82;;;;;;;15.20;100.00;99638.22;4714569;30;20052;-53
2021/08/05 02:03:11;;;;;;;18.38;8.77;;;;;;;15.15;100.00;99634.16;4706338;30;20045;-53
2021/08/05 02:05:55;;;;;;;12.77;7.10;;;;;;;15.22;100.00;99636.34;4714109;30;20049;-54
2021/08/05 02:08:39;;;;;;;15.27;8.10;;;;;;;15.23;100.00;99638.03;4703103;30;20122;-54
2021/08/05 02:11:06;;;;;;;12.02;6.95;;;;;;;15.25;100.00;99651.91;4700994;30;20049;-51
2021/08/05 02:13:40;;;;;;;15.32;7.70;;;;;;;15.26;100.00;99643.13;4693984;30;20049;-52
2021/08/05 02:16:11;;;;;;;15.07;7.55;;;;;;;15.28;100.00;99645.66;4692941;30;20136;-52
2021/08/05 02:18:39;;;;;;;15.07;8.18;;;;;;;15.31;100.00;99647.25;4682521;30;20057;-50
2021/08/05 02:21:05;;;;;;;15.40;7.05;;;;;;;15.32;100.00;99643.72;4693125;30;20506;-51
2021/08/05 02:23:32;;;;;;;14.60;6.88;;;;;;;15.25;100.00;99633.56;4698800;30;20145;-54
2021/08/05 02:25:58;;;;;;;12.93;6.25;;;;;;;15.29;100.00;99634.22;4686077;30;20069;-51
2021/08/05 02:28:25;;;;;;;10.73;6.20;;;;;;;15.35;100.00;99647.00;4699033;30;20108;-55
2021/08/05 02:30:54;;;;;;;11.52;5.78;;;;;;;15.35;100.00;99647.00;4687630;30;20045;-53
2021/08/05 02:33:21;;;;;;;13.25;6.20;;;;;;;15.35;100.00;99647.00;4700847;30;20049;-52
2021/08/05 02:35:48;;;;;;;16.30;7.75;;;;;;;15.36;100.00;99645.22;4684492;30;20056;-53
2021/08/05 02:38:14;;;;;;;17.05;6.75;;;;;;;15.38;100.00;99651.25;4697032;30;20447;-53
2021/08/05 02:40:41;;;;;;;21.98;8.93;;;;;;;15.42;100.00;99656.22;4691247;30;20139;-53
2021/08/05 02:43:09;;;;;;;20.80;7.63;;;;;;;15.45;100.00;99647.34;4682415;30;20045;-54
2021/08/05 02:45:36;;;;;;;19.80;8.05;;;;;;;15.49;100.00;99662.81;4697380;30;20048;-53
2021/08/05 02:48:04;;;;;;;14.05;7.20;;;;;;;15.51;100.00;99650.50;4708213;30;20061;-51
2021/08/05 02:50:30;;;;;;;13.73;6.78;;;;;;;15.43;100.00;99636.97;4685055;30;20116;-51
2021/08/05 02:52:57;;;;;;;15.93;7.25;;;;;;;15.47;100.00;99627.16;4697687;30;20148;-54
2021/08/05 02:55:23;;;;;;;16.25;8.40;;;;;;;15.59;100.00;99645.72;4684811;30;20505;-50
2021/08/05 02:57:51;;;;;;;15.65;7.93;;;;;;;15.63;100.00;99644.59;4691118;30;20057;-57
2021/08/05 03:00:17;;;;;;;17.08;8.57;;;;;;;15.68;100.00;99649.59;4673432;30;20395;-52
2021/08/05 03:02:43;;;;;;;14.15;7.15;;;;;;;15.73;100.00;99651.94;4698808;30;20115;-53
2021/08/05 03:05:09;;;;;;;17.48;8.13;;;;;;;15.80;100.00;99658.53;4700872;30;20486;-54
2021/08/05 03:07:35;;;;;;;29.15;13.30;;;;;;;15.85;100.00;99652.13;4704417;30;20519;-53
2021/08/05 03:10:02;;;;;;;19.63;8.00;;;;;;;15.91;100.00;99654.34;4712842;30;20060;-54
2021/08/05 03:12:28;;;;;;;15.65;7.40;;;;;;;15.97;100.00;99642.69;4699089;30;20049;-53
2021/08/05 03:14:54;;;;;;;19.40;10.15;;;;;;;16.00;100.00;99648.63;4714890;30;20048;-53
2021/08/05 03:17:21;;;;;;;14.98;7.47;;;;;;;16.04;98.69;99654.53;4684664;30;20052;-55
2021/08/05 03:19:46;;;;;;;27.38;11.70;;;;;;;16.06;97.94;99648.28;4700030;30;20060;-54
2021/08/05 03:22:12;;;;;;;20.90;9.82;;;;;;;16.14;97.80;99644.34;4682208;30;20144;-51
2021/08/05 03:24:38;;;;;;;21.60;9.05;;;;;;;16.19;97.49;99650.16;4697283;30;20041;-52
2021/08/05 03:27:04;;;;;;;16.73;8.30;;;;;;;16.16;96.87;99638.09;4697588;30;20329;-54
2021/08/05 03:29:29;;;;;;;14.65;6.72;;;;;;;16.28;95.84;99650.47;4705411;30;20471;-51
2021/08/05 03:31:55;;;;;;;12.98;6.70;;;;;;;16.31;94.46;99647.69;4713149;30;20053;-53
2021/08/05 03:34:21;;;;;;;10.93;5.80;;;;;;;16.36;93.68;99647.41;4709816;30;20049;-53
2021/08/05 03:36:47;;;;;;;13.88;6.40;;;;;;;16.43;92.06;99646.13;4697642;30;20049;-54
2021/08/05 03:39:12;;;;;;;11.85;6.28;;;;;;;16.48;91.36;99652.81;4702470;30;20197;-53
2021/08/05 03:41:39;;;;;;;14.98;6.55;;;;;;;16.45;91.30;99639.84;4711193;30;20057;-53
2021/08/05 03:44:05;;;;;;;19.65;8.93;;;;;;;16.57;90.86;99646.16;4713548;30;20048;-53
2021/08/05 03:46:30;;;;;;;10.35;5.35;;;;;;;16.60;90.84;99648.63;4697803;30;20111;-53
2021/08/05 03:48:56;;;;;;;12.65;6.45;;;;;;;16.64;90.76;99641.44;4701291;30;20060;-52
2021/08/05 03:51:22;;;;;;;11.18;5.68;;;;;;;16.67;90.79;99639.44;4698543;30;20097;-52
2021/08/05 03:53:49;;;;;;;12.15;5.78;;;;;;;16.73;90.98;99646.13;4695917;30;20052;-51
2021/08/05 03:56:15;;;;;;;12.85;5.88;;;;;;;16.75;90.76;99652.09;4697750;30;20442;-51
2021/08/05 03:58:40;;;;;;;12.65;6.75;;;;;;;16.74;90.78;99639.94;4704461;30;20438;-52
2021/08/05 04:01:06;;;;;;;12.25;7.40;;;;;;;16.81;90.37;99642.09;4684341;30;20048;-51
2021/08/05 04:03:32;;;;;;;12.07;6.82;;;;;;;16.87;90.39;99643.50;4711877;30;20451;-52
2021/08/05 04:05:58;;;;;;;13.13;7.47;;;;;;;16.91;89.67;99647.63;4700947;30;20056;-53
2021/08/05 04:08:23;;;;;;;11.18;6.75;;;;;;;16.94;89.49;99650.06;4704942;30;20092;-52
2021/08/05 04:10:49;;;;;;;12.40;5.55;;;;;;;16.89;87.63;99634.59;4700564;30;20053;-52
2021/08/05 04:13:17;;;;;;;10.18;6.00;;;;;;;17.03;86.04;99657.38;4700400;30;20076;-54
2021/08/05 04:15:43;;;;;;;8.27;5.45;;;;;;;17.02;84.47;99650.44;4700294;30;20076;-53
2021/08/05 04:18:11;;;;;;;11.43;5.63;;;;;;;17.02;83.34;99639.09;4713757;30;20522;-56
2021/08/05 04:20:37;;;;;;;12.50;5.50;;;;;;;17.13;82.38;99652.41;4713948;30;20514;-52
2021/08/05 04:23:03;;;;;;;12.43;5.45;;;;;;;17.19;82.02;99649.41;4711696;30;20300;-50
2021/08/05 04:25:29;;;;;;;9.93;5.50;;;;;;;17.25;81.70;99649.03;4691216;30;20073;-52
2021/08/05 04:27:55;;;;;;;11.35;5.60;;;;;;;17.31;81.76;99646.03;4716821;30;20510;-54
2021/08/05 04:30:21;;;;;;;12.93;5.70;;;;;;;17.36;81.55;99650.06;4717502;30;20045;-53
2021/08/05 04:32:48;;;;;;;15.43;5.80;;;;;;;17.42;81.57;99640.94;4717189;30;20037;-57
2021/08/05 04:35:14;;;;;;;10.65;5.90;;;;;;;17.49;81.72;99647.47;4717097;30;20045;-56
2021/08/05 04:37:55;;;;;;;10.45;5.90;;;;;;;17.54;81.45;99639.31;4714155;30;20061;-52
2021/08/05 04:40:21;;;;;;;12.00;5.80;;;;;;;17.50;81.29;99620.25;4700041;30;20119;-53
2021/08/05 04:42:47;;;;;;;12.07;5.97;;;;;;;17.67;81.34;99632.38;4700010;30;20056;-54
2021/08/05 04:45:13;;;;;;;11.32;5.38;;;;;;;17.74;80.90;99633.66;4699861;30;20063;-53
2021/08/05 04:47:59;;;;;;;12.65;6.45;;;;;;;17.81;80.63;99634.94;4705237;30;20052;-53
2021/08/05 04:50:28;;;;;;;13.73;5.78;;;;;;;17.89;80.58;99637.09;4710901;30;20080;-53
2021/08/05 04:52:55;;;;;;;8.90;5.20;;;;;;;17.93;80.30;99631.53;4717200;30;20044;-53
2021/08/05 04:55:22;;;;;;;13.63;6.35;;;;;;;18.00;79.80;99624.94;4715896;30;20061;-54
2021/08/05 04:57:50;;;;;;;12.73;6.85;;;;;;;18.05;79.42;99628.09;4700934;30;20198;-54
2021/08/05 05:00:26;;;;;;;12.88;6.25;;;;;;;18.04;78.75;99609.78;4715818;30;20446;-54
2021/08/05 05:02:53;;;;;;;14.25;5.45;;;;;;;18.17;77.88;99627.25;4716869;30;20097;-52
2021/08/05 05:05:19;;;;;;;9.30;5.05;;;;;;;18.15;77.09;99604.66;4716781;30;20068;-52
2021/08/05 05:07:45;;;;;;;13.68;5.80;;;;;;;18.30;76.57;99623.81;4714866;30;20060;-53
2021/08/05 05:10:12;;;;;;;9.15;5.65;;;;;;;18.36;76.12;99626.06;4698214;30;20077;-52
2021/08/05 05:12:38;;;;;;;12.73;5.00;;;;;;;18.37;75.73;99614.59;4683954;30;20041;-54
2021/08/05 05:15:04;;;;;;;8.85;4.68;;;;;;;18.51;75.47;99627.66;4699566;30;20104;-54
2021/08/05 05:17:30;;;;;;;15.90;5.65;;;;;;;18.60;75.19;99630.53;4697086;30;20072;-52
2021/08/05 05:19:56;;;;;;;9.05;4.43;;;;;;;18.68;75.08;99626.53;4714859;30;20511;-54
2021/08/05 05:22:22;;;;;;;8.70;3.92;;;;;;;18.77;73.74;99629.38;4716560;30;20049;-55
2021/08/05 05:24:48;;;;;;;11.93;3.75;;;;;;;18.84;71.87;99633.25;4715484;30;20078;-54
2021/08/05 05:27:14;;;;;;;6.50;3.38;;;;;;;18.89;69.99;99639.06;4701455;30;20068;-56
2021/08/05 05:29:40;;;;;;;9.10;3.50;;;;;;;18.94;68.91;99629.06;4697699;30;20060;-54
2021/08/05 05:32:08;;;;;;;6.68;4.40;;;;;;;19.06;68.87;99632.59;4700384;30;20399;-54
2021/08/05 05:34:34;;;;;;;8.18;3.30;;;;;;;19.16;68.75;99631.00;4700462;30;20174;-54
2021/08/05 05:37:00;;;;;;;11.63;6.32;;;;;;;19.27;68.19;99624.97;4716462;30;20052;-56
2021/08/05 05:39:25;;;;;;;10.50;6.00;;;;;;;19.41;68.28;99624.88;4714972;30;20049;-54
2021/08/05 05:41:51;;;;;;;7.95;3.35;;;;;;;19.54;67.86;99624.84;4716249;30;20049;-54
2021/08/05 05:44:17;;;;;;;4.50;2.40;;;;;;;19.65;67.14;99625.75;4716143;30;20064;-53
2021/08/05 05:46:52;;;;;;;3.53;2.00;;;;;;;19.66;65.20;99616.06;4716345;30;20095;-56
2021/08/05 05:49:18;;;;;;;3.05;1.75;;;;;;;19.71;63.97;99620.03;4702895;30;20049;-57
2021/08/05 05:51:44;;;;;;;3.08;1.67;;;;;;;19.77;62.91;99624.03;4683549;30;20160;-55
2021/08/05 05:54:09;;;;;;;4.13;2.25;;;;;;;19.80;62.39;99610.59;4698807;30;20503;-51
2021/08/05 05:56:35;;;;;;;7.05;2.83;;;;;;;20.02;62.70;99623.06;4691079;30;20048;-55
2021/08/05 05:59:01;;;;;;;9.98;3.85;;;;;;;20.19;63.13;99618.22;4712526;30;20072;-55
2021/08/05 06:01:27;;;;;;;12.70;4.93;;;;;;;20.37;63.10;99618.66;4684948;30;20049;-55
2021/08/05 06:03:52;;;;;;;7.10;2.80;;;;;;;20.43;62.92;99606.78;4683602;30;20057;-55
2021/08/05 06:06:18;;;;;;;8.25;4.00;;;;;;;20.64;62.33;99618.34;4702846;30;20045;-56
2021/08/05 06:08:44;;;;;;;5.25;2.92;;;;;;;20.74;61.53;99611.41;4713802;30;20594;-53
2021/08/05 06:11:09;;;;;;;7.05;3.80;;;;;;;20.75;61.25;99599.03;4709432;30;20486;-55
2021/08/05 06:13:35;;;;;;;11.55;6.78;;;;;;;21.00;61.27;99606.72;4715189;30;20140;-53
2021/08/05 06:16:01;;;;;;;8.20;4.00;;;;;;;21.17;60.88;99601.00;4714653;30;20136;-55
2021/08/05 06:18:28;;;;;;;8.55;3.25;;;;;;;21.35;60.52;99601.34;4714430;30;20053;-54
2021/08/05 06:20:53;;;;;;;8.23;3.50;;;;;;;21.52;59.41;99611.38;4703330;30;20066;-55
2021/08/05 06:23:19;;;;;;;6.50;3.35;;;;;;;21.73;58.35;99614.94;4701562;30;20136;-55
2021/08/05 06:25:45;;;;;;;14.25;3.70;;;;;;;21.93;57.76;99602.72;4714101;30;20090;-55
2021/08/05 06:28:11;;;;;;;11.55;4.50;;;;;;;22.13;57.71;99606.41;4713890;30;20103;-56
2021/08/05 06:30:37;;;;;;;11.05;6.05;;;;;;;22.27;56.84;99608.75;4710388;30;20049;-56
2021/08/05 06:33:03;;;;;;;6.63;3.50;;;;;;;22.53;56.26;99611.84;4706707;30;20056;-55
2021/08/05 06:35:28;;;;;;;12.25;5.28;;;;;;;23.20;53.91;99609.53;4710063;30;20052;-57
2021/08/05 06:37:54;;;;;;;13.43;5.55;;;;;;;24.26;51.14;99607.94;4694243;30;20084;-56
2021/08/05 06:40:21;;;;;;;4.50;2.53;;;;;;;25.44;45.69;99613.59;4704057;30;20431;-57
2021/08/05 06:42:47;;;;;;;3.53;2.35;;;;;;;26.27;41.92;99613.34;4712728;30;20049;-55
2021/08/05 06:45:15;;;;;;;5.28;2.90;;;;;;;27.03;40.70;99615.34;4715246;30;20057;-58
2021/08/05 06:47:45;;;;;;;5.22;2.78;;;;;;;27.88;39.42;99611.66;4715125;30;20104;-57
2021/08/05 06:50:11;;;;;;;8.40;3.08;;;;;;;29.05;38.12;99618.28;4700362;30;20044;-57
2021/08/05 06:52:37;;;;;;;3.78;2.55;;;;;;;29.75;35.46;99616.50;4702848;30;20060;-52
2021/08/05 06:55:03;;;;;;;5.90;3.08;;;;;;;30.61;34.53;99600.13;4708945;30;20053;-60
2021/08/05 06:57:29;;;;;;;6.70;3.03;;;;;;;31.18;32.11;99610.25;4686697;30;20052;-59
2021/08/05 06:59:55;;;;;;;13.02;4.55;;;;;;;31.87;31.37;99610.69;4691328;30;20445;-63
2021/08/05 07:02:21;;;;;;;10.50;4.55;;;;;;;32.84;30.54;99608.22;4691416;30;20124;-59
2021/08/05 07:04:47;;;;;;;4.43;2.47;;;;;;;33.28;29.09;99605.19;4704716;30;20175;-61
2021/08/05 07:07:12;;;;;;;8.77;2.90;;;;;;;33.81;28.74;99595.44;4700441;30;20045;-58
2021/08/05 07:09:38;;;;;;;7.22;2.80;;;;;;;34.78;27.05;99599.25;4703683;30;20098;-59
2021/08/05 07:12:04;;;;;;;5.95;3.55;;;;;;;35.59;25.74;99599.59;4704787;30;20054;-58
2021/08/05 07:14:30;;;;;;;5.57;3.38;;;;;;;36.01;25.47;99600.81;4705196;30;20049;-60
2021/08/05 07:16:56;;;;;;;9.30;3.75;;;;;;;36.27;24.11;99589.00;4683514;30;20045;-60
2021/08/05 07:19:22;;;;;;;8.32;4.22;;;;;;;36.46;24.53;99588.00;4702848;30;20053;-50
2021/08/05 07:21:48;;;;;;;8.60;3.50;;;;;;;36.94;23.97;99584.63;4696335;30;20529;-60
2021/08/05 07:24:13;;;;;;;13.20;7.30;;;;;;;37.58;23.43;99591.41;4698186;30;20546;-63
2021/08/05 07:26:40;;;;;;;20.15;11.88;;;;;;;38.01;22.67;99588.47;4701931;30;20037;-60
2021/08/05 07:29:07;;;;;;;8.85;5.43;;;;;;;38.40;22.27;99587.00;4705032;30;20084;-63
2021/08/05 07:31:33;;;;;;;5.00;3.60;;;;;;;38.86;21.74;99587.00;4709318;30;20095;-58
2021/08/05 07:33:59;;;;;;;8.85;4.25;;;;;;;39.03;21.02;99568.09;4700488;30;20053;-54
2021/08/05 07:36:26;;;;;;;11.30;4.82;;;;;;;39.14;21.62;99574.59;4704830;30;20057;-63
2021/08/05 07:38:53;;;;;;;6.93;4.13;;;;;;;39.56;21.35;99581.44;4682071;30;20437;-64
2021/08/05 07:41:18;;;;;;;10.82;7.40;;;;;;;39.79;20.74;99572.34;4682473;30;20884;-65
2021/08/05 07:43:45;;;;;;;9.75;5.00;;;;;;;40.21;20.82;99561.91;4703646;30;20152;-67
2021/08/05 07:46:10;;;;;;;9.93;4.05;;;;;;;38.97;21.29;99569.88;4704101;30;20135;-65
2021/08/05 07:48:36;;;;;;;15.30;4.90;;;;;;;38.45;22.01;99566.25;4691838;30;20140;-66
2021/08/05 07:51:02;;;;;;;9.25;4.40;;;;;;;38.48;20.85;99567.66;4696200;30;20085;-64
2021/08/05 07:53:28;;;;;;;8.23;4.30;;;;;;;38.99;20.60;99558.78;4701101;30;20053;-63
2021/08/05 07:55:54;;;;;;;8.32;5.35;;;;;;;39.79;19.72;99573.19;4701392;30;20546;-58
2021/08/05 07:58:20;;;;;;;9.38;3.80;;;;;;;39.70;18.83;99561.00;4703220;30;20057;-49
2021/08/05 08:00:46;;;;;;;6.10;4.28;;;;;;;38.93;19.61;99560.56;4702315;30;20253;-56
2021/08/05 08:03:12;;;;;;;10.15;4.05;;;;;;;39.02;19.67;99568.34;4704337;30;20053;-56
2021/08/05 08:05:40;;;;;;;8.60;3.17;;;;;;;38.53;19.63;99559.63;4705670;30;20037;-57
2021/08/05 08:08:06;;;;;;;;;;;;;;;37.34;21.20;99568.72;4698895;30;20061;-57
2021/08/05 08:10:32;;;;;;;7.10;3.38;;;;;;;36.22;22.46;99560.94;4697363;30;19923;-58
2021/08/05 08:12:58;;;;;;;6.30;3.20;;;;;;;35.06;23.64;99558.44;4702065;30;20053;-58
2021/08/05 08:15:25;;;;;;;7.53;2.97;;;;;;;34.01;24.32;99561.22;4697509;30;20148;-54
2021/08/05 08:17:54;;;;;;;7.68;3.03;;;;;;;32.78;25.66;99554.13;4702001;30;20441;-56
2021/08/05 08:20:21;;;;;;;6.50;2.88;;;;;;;31.68;26.78;99550.28;4700812;30;20180;-54
2021/08/05 08:22:47;;;;;;;9.45;3.20;;;;;;;30.93;27.73;99555.13;4690656;30;20052;-57
2021/08/05 08:25:15;;;;;;;7.05;2.72;;;;;;;30.21;28.33;99550.31;4703811;30;20058;-57
2021/08/05 08:27:43;;;;;;;8.13;3.05;;;;;;;29.64;29.01;99554.41;4687519;30;20065;-59
2021/08/05 08:30:11;;;;;;;6.25;2.70;;;;;;;28.92;30.10;99549.25;4700793;30;20056;-59
2021/08/05 08:32:38;;;;;;;8.13;2.88;;;;;;;28.68;30.85;99551.97;4696830;30;20048;-58
2021/08/05 08:35:05;;;;;;;9.55;3.15;;;;;;;28.56;31.60;99550.66;4702925;30;20045;-63
2021/08/05 08:37:32;;;;;;;9.30;3.25;;;;;;;28.49;31.62;99552.34;4705354;30;20060;-62
2021/08/05 08:39:58;;;;;;;10.50;3.15;;;;;;;28.20;31.85;99539.53;4689838;30;20040;-65
2021/08/05 08:42:24;;;;;;;9.68;3.55;;;;;;;28.29;31.47;99554.56;4710838;30;20048;-58
2021/08/05 08:44:50;;;;;;;6.72;3.30;;;;;;;28.56;30.99;99548.84;4694958;30;20049;-62
2021/08/05 08:47:17;;;;;;;7.63;3.90;;;;;;;28.92;30.47;99554.59;4696069;30;20105;-58
2021/08/05 08:49:44;;;;;;;9.55;3.30;;;;;;;30.16;29.32;99547.34;4691040;30;20048;-63
2021/08/05 08:52:10;;;;;;;5.18;3.63;;;;;;;31.19;27.29;99527.81;4689598;30;20048;-65
2021/08/05 08:54:43;;;;;;;7.00;3.13;;;;;;;32.87;25.23;99554.78;4707829;30;20120;-67
2021/08/05 08:57:11;;;;;;;8.95;3.95;;;;;;;34.25;23.92;99538.19;4704314;30;20050;-63
2021/08/05 08:59:38;;;;;;;5.13;3.65;;;;;;;35.65;22.27;99555.44;4710044;30;20132;-68
2021/08/05 09:02:05;;;;;;;9.30;3.97;;;;;;;36.38;21.85;99552.22;4700863;30;20049;-68
2021/08/05 09:04:30;;;;;;;22.52;4.13;;;;;;;36.45;21.71;99556.53;4707480;30;20057;-74
2021/08/05 09:06:58;;;;;;;7.63;3.55;;;;;;;36.74;20.86;99563.16;4705366;30;20127;-68
2021/08/05 09:09:24;;;;;;;4.75;3.10;;;;;;;35.51;22.27;99545.75;4705648;30;20064;-68
2021/08/05 09:11:49;;;;;;;9.23;3.67;;;;;;;34.10;23.60;99543.78;4704979;30;20045;-66
2021/08/05 09:14:47;;;;;;;5.95;3.17;;;;;;;33.93;23.85;99550.63;4704789;30;20058;-66
2021/08/05 09:17:17;;;;;;;;;;;;;;;34.61;23.50;99538.56;4710083;30;20045;-61
2021/08/05 09:19:42;;;;;;;5.47;3.53;;;;;;;34.44;23.82;99534.63;4713260;30;20425;-65
2021/08/05 09:22:08;;;;;;;6.63;3.45;;;;;;;33.28;24.95;99527.03;4704146;30;20061;-62
2021/08/05 09:24:34;;;;;;;11.55;3.53;;;;;;;32.48;26.19;99523.06;4680057;30;20058;-62
2021/08/05 09:27:02;;;;;;;8.40;3.25;;;;;;;32.15;26.69;99528.19;4712505;30;20119;-57
2021/08/05 09:29:30;;;;;;;7.00;3.20;;;;;;;32.04;26.90;99519.78;4701646;30;20056;-58
2021/08/05 09:31:58;;;;;;;7.50;3.40;;;;;;;31.36;27.65;99531.91;4713248;30;20056;-59
2021/08/05 09:34:33;;;;;;;5.80;3.50;;;;;;;31.22;28.09;99513.97;4691364;30;20049;-70
2021/08/05 09:37:01;;;;;;;5.88;3.08;;;;;;;31.17;28.06;99525.28;4697176;30;20042;-62
2021/08/05 09:39:29;;;;;;;6.47;3.03;;;;;;;31.00;28.09;99521.97;4709964;30;20131;-62
2021/08/05 09:42:06;;;;;;;11.32;3.40;;;;;;;30.44;28.20;99519.91;4705766;30;20564;-58
2021/08/05 09:44:38;;;;;;;6.03;3.00;;;;;;;30.00;28.97;99519.81;4683987;30;20049;-59
2021/08/05 09:47:09;;;;;;;7.50;2.67;;;;;;;29.74;29.58;99512.13;4711108;30;20079;-66
2021/08/05 09:49:37;;;;;;;9.20;2.63;;;;;;;29.66;29.96;99514.88;4696331;30;20484;-68
2021/08/05 09:52:06;;;;;;;12.10;3.55;;;;;;;29.68;30.46;99519.03;4699890;30;20522;-69
2021/08/05 09:54:51;;;;;;;6.80;3.75;;;;;;;29.55;30.70;99510.78;4691167;30;20439;-66
2021/08/05 09:57:27;;;;;;;6.90;2.25;;;;;;;29.00;31.00;99509.03;4700166;30;20052;-65
2021/08/05 09:59:58;;;;;;;4.72;2.88;;;;;;;28.28;31.29;99507.41;4698158;30;20052;-63
2021/08/05 10:02:25;;;;;;;11.73;2.83;;;;;;;28.12;32.09;99508.28;4699176;30;20085;-61
2021/08/05 10:04:53;;;;;;;9.45;3.03;;;;;;;28.29;31.87;99479.69;4711008;30;20049;-60
2021/08/05 10:07:19;;;;;;;5.28;2.45;;;;;;;28.76;31.55;99500.28;4711067;30;20052;-58
2021/08/05 10:09:45;;;;;;;7.30;2.75;;;;;;;29.32;30.73;99504.56;4694396;30;20044;-58
2021/08/05 10:12:24;;;;;;;4.18;2.08;;;;;;;29.73;29.69;99500.56;4700167;30;20187;-62
2021/08/05 10:14:51;;;;;;;5.00;2.38;;;;;;;30.12;29.00;99508.50;4713583;30;20053;-61
2021/08/05 10:17:20;;;;;;;7.20;1.85;;;;;;;29.69;29.60;99498.44;4711294;30;20155;-61
2021/08/05 10:19:47;;;;;;;4.47;2.10;;;;;;;29.30;30.33;99495.84;4715621;30;20057;-62
2021/08/05 10:22:15;;;;;;;4.68;2.20;;;;;;;29.81;29.71;99502.38;4713023;30;20587;-62
2021/08/05 10:24:42;;;;;;;;;;;;;;;29.85;29.91;99495.63;4696546;30;20071;-65
2021/08/05 10:27:11;;;;;;;4.60;2.17;;;;;;;29.71;30.42;99501.78;4694837;30;19923;-68
2021/08/05 10:29:38;;;;;;;7.53;2.47;;;;;;;29.38;30.36;99498.50;4709493;30;20059;-68
2021/08/05 10:32:06;;;;;;;5.50;2.10;;;;;;;29.06;30.79;99492.28;4684868;30;20079;-70
2021/08/05 10:34:34;;;;;;;3.27;2.03;;;;;;;28.38;31.31;99480.47;4710302;30;20052;-66
2021/08/05 10:37:01;;;;;;;3.50;2.00;;;;;;;27.84;31.97;99490.06;4709935;30;20053;-61
2021/08/05 10:39:28;;;;;;;7.28;2.10;;;;;;;27.36;32.89;99484.50;4698032;30;20311;-71
2021/08/05 10:41:56;;;;;;;5.10;2.30;;;;;;;27.10;33.59;99472.25;4696105;30;20076;-71
2021/08/05 10:44:22;;;;;;;7.28;2.00;;;;;;;26.94;34.40;99475.72;4695458;30;20072;-66
2021/08/05 10:46:48;;;;;;;10.10;2.30;;;;;;;26.78;34.45;99488.97;4685216;30;20056;-67
2021/08/05 10:49:14;;;;;;;3.42;2.10;;;;;;;26.58;34.50;99483.06;4696934;30;20057;-62
2021/08/05 10:51:41;;;;;;;3.53;2.08;;;;;;;26.50;34.80;99483.84;4712190;30;20135;-59
2021/08/05 10:54:08;;;;;;;5.80;2.30;;;;;;;26.39;34.60;99483.25;4710818;30;20140;-60
2021/08/05 10:56:35;;;;;;;5.60;1.92;;;;;;;26.08;35.01;99478.38;4707369;30;20045;-59
2021/08/05 10:59:11;;;;;;;5.45;1.80;;;;;;;25.89;35.23;99481.25;4695873;30;20045;-59
2021/08/05 11:01:53;;;;;;;3.20;1.75;;;;;;;25.55;35.11;99478.47;4708955;30;20053;-63
2021/08/05 11:04:40;;;;;;;4.13;1.80;;;;;;;25.42;35.65;99480.66;4710656;30;20060;-65
2021/08/05 11:07:21;;;;;;;3.70;2.08;;;;;;;25.18;36.95;99473.25;4688904;30;20049;-61
2021/08/05 11:09:48;;;;;;;6.40;2.05;;;;;;;25.00;37.29;99472.41;4696799;30;20593;-58
2021/08/05 11:12:39;;;;;;;2.08;1.60;;;;;;;24.84;37.90;99478.34;4709336;30;20064;-67
2021/08/05 11:15:25;;;;;;;5.18;2.03;;;;;;;24.68;38.99;99478.13;4711527;30;20132;-54
2021/08/05 11:18:09;;;;;;;4.15;2.28;;;;;;;24.62;39.66;99488.50;4712634;30;20140;-55
2021/08/05 11:20:41;;;;;;;3.38;2.10;;;;;;;24.43;40.40;99500.06;4709453;30;20057;-59
2021/08/05 11:23:07;;;;;;;5.40;1.70;;;;;;;24.20;41.25;99491.59;4711829;30;20116;-60
2021/08/05 11:25:52;;;;;;;5.40;2.38;;;;;;;23.84;45.53;99495.81;4690404;30;20093;-60
2021/08/05 11:28:18;;;;;;;4.22;1.83;;;;;;;22.91;49.28;99500.75;4705822;30;20072;-58
2021/08/05 11:30:50;;;;;;;5.30;1.90;;;;;;;22.00;53.99;99505.97;4707336;30;20107;-69
2021/08/05 11:33:37;;;;;;;5.18;2.42;;;;;;;21.34;57.74;99504.44;4697729;30;20144;-60